Bluffs, Illinois
Current Conditions -  °F | °C
As of 11:55 PM on Saturday 25 Oct 2014 (Local Time) from KPPQ Reporting Station
Clear Clear  
Wind Chill: 15°   Ceiling: Unl
Heat Index: 15°   Visibility: 10mi
Dew Point:   Wind: 3mph
Humidity: 57%   Direction: 330°NNW
Pressure: 30.05"   Gusts: NA
Location:  39.75°N, 90.54°W
Report Text: KPPQ 260455Z AUTO 33003KT 10SM CLR 15/06 A3005 RMK AO2 T01450061
Loading
Personal Weather Stations






























Interactive Weather Map
Tropical Storm Tracking
New forecast layout! Learn more

10-Day Weather Forecast

Advertisements
Track Severe Weather on mobile